Terminal Aerodrome Forecast
Issued by NWS

Home | Current Version | Previous Version | Text Only | Print | Product List | Glossary On
Versions: 1 2 3 4 5 6 7 8 9 10 11 12 13 14 15 16 17 18 19 20 21
514
FTUS43 KDVN 112322
TAFCID
TAF
KCID 112322Z 1200/1224 18005KT P6SM OVC090
     FM120200 20004KT 3SM -SN BR OVC020
     FM120500 28009KT 6SM -SN OVC035
     FM121100 30013KT P6SM BKN050
     FM121600 30020G30KT P6SM BKN035=

USA.gov is the U.S. government's official web portal to all federal, state and local government web resources and services.